createdAt,value
2018-07-07T00:01:26.900Z,63.60
2018-07-07T00:03:56.482Z,63.80
2018-07-07T00:06:25.097Z,63.70
2018-07-07T00:08:54.440Z,64.10
2018-07-07T00:11:23.195Z,64.20
2018-07-07T00:13:53.925Z,63.60
2018-07-07T00:16:22.439Z,63.70
2018-07-07T00:18:51.050Z,64.10
2018-07-07T00:21:19.565Z,63.60
2018-07-07T00:23:48.268Z,64.10
2018-07-07T00:26:17.686Z,64.20
2018-07-07T00:28:46.393Z,64.50
2018-07-07T00:31:14.882Z,64.70
2018-07-07T00:33:43.650Z,64.90
2018-07-07T00:36:12.133Z,65.50
2018-07-07T00:38:40.960Z,65.70
2018-07-07T00:41:09.787Z,65.60
2018-07-07T00:43:38.868Z,65.90
2018-07-07T00:46:07.414Z,66.30
2018-07-07T00:51:04.403Z,66.70
2018-07-07T00:53:32.881Z,67.00
2018-07-07T00:56:02.292Z,67.10
2018-07-07T00:58:35.387Z,67.50
2018-07-07T01:01:04.250Z,67.40
2018-07-07T01:03:32.712Z,67.40
2018-07-07T01:06:01.976Z,67.30
2018-07-07T01:08:30.718Z,66.60
2018-07-07T01:10:59.617Z,66.10
2018-07-07T01:13:28.285Z,65.60
2018-07-07T01:15:57.794Z,64.60
2018-07-07T01:18:26.638Z,64.50
2018-07-07T01:20:55.302Z,65.10
2018-07-07T01:23:24.008Z,65.20
2018-07-07T01:25:52.652Z,64.60
2018-07-07T01:28:21.409Z,65.30
2018-07-07T01:30:49.965Z,65.30
2018-07-07T01:35:47.397Z,64.30
2018-07-07T01:38:16.079Z,63.40
2018-07-07T01:40:44.913Z,63.10
2018-07-07T01:43:13.854Z,63.60
2018-07-07T01:45:43.908Z,62.90
2018-07-07T01:48:13.154Z,63.50
2018-07-07T01:50:42.024Z,63.20
2018-07-07T01:53:10.720Z,63.20
2018-07-07T01:55:39.408Z,62.90
2018-07-07T01:58:08.696Z,62.70
2018-07-07T02:00:37.328Z,63.00
2018-07-07T02:03:06.286Z,62.50
2018-07-07T02:05:35.289Z,63.10
2018-07-07T02:08:04.372Z,63.30
2018-07-07T02:10:33.129Z,63.50
2018-07-07T02:13:05.789Z,63.30
2018-07-07T02:15:34.694Z,63.80
2018-07-07T02:18:03.761Z,63.60
2018-07-07T02:20:32.394Z,63.80
2018-07-07T02:23:01.052Z,63.30
2018-07-07T02:25:29.698Z,63.30
2018-07-07T02:27:58.396Z,63.00
2018-07-07T02:30:27.084Z,63.00
2018-07-07T02:32:55.828Z,63.10
2018-07-07T02:35:24.652Z,63.30
2018-07-07T02:37:53.845Z,63.20
2018-07-07T02:40:22.503Z,63.60
2018-07-07T02:42:51.337Z,63.30
2018-07-07T02:45:20.457Z,63.20
2018-07-07T02:50:17.695Z,63.90
2018-07-07T02:55:14.602Z,64.10
2018-07-07T02:57:43.229Z,63.90
2018-07-07T03:00:12.029Z,64.00
2018-07-07T03:02:40.689Z,65.00
2018-07-07T03:05:09.474Z,63.90
2018-07-07T03:07:38.205Z,64.10
2018-07-07T03:10:07.280Z,63.30
2018-07-07T03:12:36.079Z,63.10
2018-07-07T03:15:06.650Z,62.20
2018-07-07T03:17:36.512Z,62.20
2018-07-07T03:20:05.629Z,61.80
2018-07-07T03:22:34.135Z,61.80
2018-07-07T03:25:02.652Z,61.30
2018-07-07T03:27:31.231Z,60.40
2018-07-07T03:30:00.521Z,59.60
2018-07-07T03:32:29.848Z,58.90
2018-07-07T03:34:58.485Z,58.60
2018-07-07T03:37:27.175Z,58.10
2018-07-07T03:39:56.811Z,57.90
2018-07-07T03:42:25.472Z,56.90
2018-07-07T03:44:53.989Z,56.40
2018-07-07T03:47:22.771Z,55.90
2018-07-07T03:49:51.625Z,55.60
2018-07-07T03:52:20.181Z,55.50
2018-07-07T03:54:48.721Z,55.00
2018-07-07T03:57:17.310Z,55.40
2018-07-07T03:59:45.822Z,55.90
2018-07-07T04:02:14.319Z,55.70
2018-07-07T04:04:42.820Z,55.70
2018-07-07T04:07:11.605Z,55.80
2018-07-07T04:09:40.789Z,55.30
2018-07-07T04:12:09.425Z,55.20
2018-07-07T04:14:37.936Z,55.00
2018-07-07T04:17:07.035Z,54.70
2018-07-07T04:19:35.713Z,55.00
2018-07-07T04:22:04.265Z,55.40
2018-07-07T04:24:32.857Z,54.70
2018-07-07T04:27:01.439Z,55.00
2018-07-07T04:29:30.030Z,54.40
2018-07-07T04:31:58.593Z,54.10
2018-07-07T04:34:27.398Z,54.60
2018-07-07T04:36:56.384Z,54.10
2018-07-07T04:39:25.101Z,54.10
2018-07-07T04:41:55.041Z,54.00
2018-07-07T04:44:23.821Z,54.10
2018-07-07T04:46:53.073Z,54.40
2018-07-07T04:49:22.085Z,54.50
2018-07-07T04:51:51.020Z,54.10
2018-07-07T04:54:19.797Z,53.50
2018-07-07T04:56:48.700Z,52.00
2018-07-07T04:59:17.671Z,50.90
2018-07-07T05:01:46.570Z,50.20
2018-07-07T05:04:15.093Z,50.00
2018-07-07T05:06:43.761Z,49.50
2018-07-07T05:09:12.373Z,48.60
2018-07-07T05:11:40.876Z,48.00
2018-07-07T05:14:09.580Z,48.30
2018-07-07T05:16:38.089Z,48.10
2018-07-07T05:19:06.722Z,47.90
2018-07-07T05:21:35.629Z,47.90
2018-07-07T05:24:04.295Z,48.00
2018-07-07T05:26:32.857Z,48.00
2018-07-07T05:29:02.129Z,48.10
2018-07-07T05:31:30.680Z,48.30
2018-07-07T05:33:59.730Z,48.20
2018-07-07T05:36:28.351Z,48.50
2018-07-07T05:38:56.934Z,48.40
2018-07-07T05:41:26.090Z,48.80
2018-07-07T05:43:55.628Z,49.20
2018-07-07T05:46:24.262Z,49.00
2018-07-07T05:48:52.897Z,48.80
2018-07-07T05:51:21.741Z,48.70
2018-07-07T05:53:50.859Z,47.00
2018-07-07T05:56:19.512Z,47.00
2018-07-07T05:58:48.348Z,46.10
2018-07-07T06:01:17.244Z,45.70
2018-07-07T06:03:46.308Z,45.60
2018-07-07T06:06:15.184Z,45.30
2018-07-07T06:08:43.720Z,43.00
2018-07-07T06:13:40.866Z,41.80
2018-07-07T06:16:09.761Z,41.50
2018-07-07T06:18:38.476Z,41.30
2018-07-07T06:21:07.385Z,40.80
2018-07-07T06:23:36.798Z,40.00
2018-07-07T06:26:05.923Z,39.60
2018-07-07T06:28:34.753Z,38.70
2018-07-07T06:31:03.725Z,37.90
2018-07-07T06:33:33.881Z,35.30
2018-07-07T06:36:02.657Z,34.40
2018-07-07T06:38:32.260Z,32.70
2018-07-07T06:41:01.475Z,31.40
2018-07-07T06:43:30.694Z,31.50
2018-07-07T06:45:59.505Z,28.80
2018-07-07T06:48:28.186Z,28.60
2018-07-07T06:50:57.435Z,27.40
2018-07-07T06:53:26.429Z,28.00
2018-07-07T06:55:55.152Z,28.60
2018-07-07T06:58:24.221Z,28.50
2018-07-07T07:00:53.215Z,27.20
2018-07-07T07:03:21.960Z,27.00
2018-07-07T07:05:50.634Z,26.80
2018-07-07T07:08:19.462Z,26.30
2018-07-07T07:10:48.239Z,25.60
2018-07-07T07:13:17.225Z,24.90
2018-07-07T07:15:45.862Z,23.90
2018-07-07T07:18:14.590Z,23.00
2018-07-07T07:20:43.972Z,22.50
2018-07-07T07:23:12.625Z,22.20
2018-07-07T07:25:41.521Z,21.60
2018-07-07T07:28:10.837Z,21.60
2018-07-07T07:30:39.648Z,21.20
2018-07-07T07:33:08.672Z,21.00
2018-07-07T07:35:37.440Z,21.10
2018-07-07T07:38:10.785Z,20.40
2018-07-07T07:40:39.510Z,20.60
2018-07-07T07:43:09.210Z,20.70
2018-07-07T07:45:37.808Z,20.50
2018-07-07T07:48:06.431Z,20.40
2018-07-07T07:50:35.782Z,20.10
2018-07-07T07:53:04.885Z,19.30
2018-07-07T07:55:34.159Z,19.40
2018-07-07T07:58:03.136Z,19.70
2018-07-07T08:00:32.585Z,19.70
2018-07-07T08:03:01.148Z,19.10
2018-07-07T08:05:30.731Z,18.70
2018-07-07T08:07:59.794Z,20.90
2018-07-07T08:10:28.522Z,20.10
2018-07-07T08:12:57.937Z,19.80
2018-07-07T08:15:27.478Z,19.40
2018-07-07T08:17:56.266Z,18.60
2018-07-07T08:20:25.216Z,18.80
2018-07-07T08:22:53.876Z,18.90
2018-07-07T08:25:22.392Z,19.20
2018-07-07T08:27:51.400Z,18.90
2018-07-07T08:30:20.041Z,19.50
2018-07-07T08:32:48.748Z,19.30
2018-07-07T08:35:17.527Z,19.10
2018-07-07T08:37:46.329Z,18.30
2018-07-07T08:40:15.111Z,19.20
2018-07-07T08:42:45.285Z,22.10
2018-07-07T08:45:14.000Z,19.50
2018-07-07T08:47:43.038Z,21.80
2018-07-07T08:50:11.776Z,21.00
2018-07-07T08:52:40.912Z,21.00
2018-07-07T08:55:09.878Z,19.80
2018-07-07T08:57:39.121Z,20.20
2018-07-07T09:00:08.118Z,17.90
2018-07-07T09:02:36.937Z,17.50
2018-07-07T09:05:05.969Z,18.10
2018-07-07T09:07:34.749Z,17.50
2018-07-07T09:10:03.714Z,18.00
2018-07-07T09:12:32.358Z,18.10
2018-07-07T09:15:01.232Z,18.20
2018-07-07T09:17:30.558Z,18.00
2018-07-07T09:22:28.147Z,17.80
2018-07-07T09:24:57.293Z,17.50
2018-07-07T09:27:26.829Z,17.30
2018-07-07T09:29:55.777Z,17.10
2018-07-07T09:32:25.103Z,17.30
2018-07-07T09:34:54.024Z,16.70
2018-07-07T09:39:51.803Z,16.90
2018-07-07T09:42:20.480Z,17.10
2018-07-07T09:44:49.125Z,17.10
2018-07-07T09:47:17.988Z,17.40
2018-07-07T09:49:47.096Z,17.20
2018-07-07T09:52:15.588Z,16.50
2018-07-07T09:54:44.591Z,16.90
2018-07-07T09:57:13.591Z,16.90
2018-07-07T09:59:42.238Z,16.70
2018-07-07T10:02:11.182Z,17.00
2018-07-07T10:07:08.138Z,17.30
2018-07-07T10:09:37.612Z,17.30
2018-07-07T10:12:06.724Z,17.00
2018-07-07T10:14:35.761Z,16.80
2018-07-07T10:17:04.393Z,16.30
2018-07-07T10:19:33.254Z,16.20
2018-07-07T10:22:02.829Z,16.10
2018-07-07T10:24:31.426Z,15.80
2018-07-07T10:27:00.133Z,15.30
2018-07-07T10:29:29.146Z,16.20
2018-07-07T10:31:58.210Z,16.10
2018-07-07T10:34:26.835Z,15.80
2018-07-07T10:36:55.680Z,16.50
2018-07-07T10:39:24.769Z,16.00
2018-07-07T10:41:53.443Z,15.90
2018-07-07T10:44:22.533Z,16.50
2018-07-07T10:46:51.468Z,16.90
2018-07-07T10:49:20.291Z,16.70
2018-07-07T10:51:49.334Z,15.90
2018-07-07T10:54:18.341Z,16.10
2018-07-07T10:56:46.888Z,16.20
2018-07-07T10:59:15.522Z,16.90
2018-07-07T11:01:44.262Z,17.00
2018-07-07T11:04:12.939Z,17.00
2018-07-07T11:06:41.858Z,17.10
2018-07-07T11:22:10.097Z,17.50
2018-07-07T11:24:38.725Z,18.30
2018-07-07T11:27:07.424Z,24.40
2018-07-07T11:29:35.952Z,25.70
2018-07-07T11:32:04.652Z,24.60
2018-07-07T11:34:33.280Z,28.90
2018-07-07T11:37:02.144Z,25.20
2018-07-07T11:39:31.112Z,29.60
2018-07-07T11:42:00.334Z,35.50
2018-07-07T11:46:57.185Z,33.00
2018-07-07T11:49:25.993Z,29.80
2018-07-07T11:51:55.031Z,28.90
2018-07-07T11:54:24.066Z,27.10
2018-07-07T11:56:53.009Z,27.20
2018-07-07T11:59:22.051Z,27.30
2018-07-07T12:01:50.789Z,26.60
2018-07-07T12:04:19.491Z,27.40
2018-07-07T12:06:48.341Z,27.40
2018-07-07T12:09:16.981Z,28.10
2018-07-07T12:11:45.856Z,30.50
2018-07-07T12:14:14.465Z,31.50
2018-07-07T12:16:43.170Z,28.60
2018-07-07T12:19:11.823Z,28.70
2018-07-07T12:21:40.320Z,29.00
2018-07-07T12:24:08.840Z,28.20
2018-07-07T12:26:37.592Z,28.90
2018-07-07T12:29:06.320Z,29.60
2018-07-07T12:31:35.389Z,31.10
2018-07-07T12:34:04.240Z,32.80
2018-07-07T12:36:32.799Z,32.50
2018-07-07T12:39:01.407Z,29.30
2018-07-07T12:41:30.292Z,29.10
2018-07-07T12:43:58.808Z,28.90
2018-07-07T12:46:27.353Z,29.00
2018-07-07T12:48:56.260Z,29.20
2018-07-07T12:51:25.447Z,29.00
2018-07-07T12:53:54.220Z,28.80
2018-07-07T12:56:23.162Z,28.60
2018-07-07T12:58:51.923Z,28.40
2018-07-07T13:01:20.590Z,28.60
2018-07-07T13:03:49.455Z,28.70
2018-07-07T13:06:18.195Z,28.70
2018-07-07T13:08:46.745Z,29.00
2018-07-07T13:11:15.293Z,28.90
2018-07-07T13:13:44.053Z,29.00
2018-07-07T13:16:12.853Z,29.00
2018-07-07T13:18:42.113Z,28.80
2018-07-07T13:21:10.795Z,29.20
2018-07-07T13:23:39.532Z,29.00
2018-07-07T13:26:08.069Z,29.10
2018-07-07T13:28:36.844Z,29.40
2018-07-07T13:31:09.737Z,29.10
2018-07-07T13:33:38.301Z,29.10
2018-07-07T13:36:06.880Z,29.50
2018-07-07T13:38:37.112Z,29.70
2018-07-07T13:41:08.360Z,29.30
2018-07-07T13:43:37.035Z,29.40
2018-07-07T13:48:34.024Z,29.10
2018-07-07T13:51:02.683Z,29.40
2018-07-07T13:53:31.414Z,29.20
2018-07-07T13:56:00.316Z,29.20
2018-07-07T13:58:29.330Z,29.60
2018-07-07T14:00:58.673Z,29.60
2018-07-07T14:03:27.835Z,29.70
2018-07-07T14:05:56.614Z,30.00
2018-07-07T14:08:25.308Z,30.00
2018-07-07T14:10:53.994Z,30.00
2018-07-07T14:13:22.696Z,30.00
2018-07-07T14:15:51.190Z,29.90
2018-07-07T14:18:19.876Z,29.70
2018-07-07T14:20:48.625Z,29.80
2018-07-07T14:23:17.648Z,30.20
2018-07-07T14:25:46.797Z,30.70
2018-07-07T14:28:15.392Z,30.50
2018-07-07T14:33:12.957Z,30.40
2018-07-07T14:35:41.656Z,30.00
2018-07-07T14:38:10.416Z,30.70
2018-07-07T14:40:45.355Z,30.10
2018-07-07T14:43:14.376Z,30.40
2018-07-07T14:45:53.023Z,30.00
2018-07-07T14:48:21.729Z,30.00
2018-07-07T14:50:50.338Z,30.00
2018-07-07T14:53:18.952Z,30.20
2018-07-07T14:55:47.832Z,30.20
2018-07-07T14:58:16.403Z,30.20
2018-07-07T15:00:45.213Z,30.60
2018-07-07T15:03:13.828Z,30.20
2018-07-07T15:05:42.678Z,30.70
2018-07-07T15:08:11.359Z,30.90
2018-07-07T15:10:40.150Z,30.60
2018-07-07T15:13:08.613Z,30.80
2018-07-07T15:15:37.197Z,30.60
2018-07-07T15:18:05.931Z,30.70
2018-07-07T15:20:34.721Z,30.50
2018-07-07T15:23:03.345Z,30.40
2018-07-07T15:25:31.834Z,30.30
2018-07-07T15:28:00.650Z,30.30
2018-07-07T15:30:29.182Z,30.60
2018-07-07T15:33:04.694Z,30.80
2018-07-07T15:35:33.264Z,30.60
2018-07-07T15:38:01.858Z,30.90
2018-07-07T15:40:30.454Z,30.90
2018-07-07T15:42:59.105Z,31.20
2018-07-07T15:45:28.096Z,31.10
2018-07-07T15:47:56.782Z,30.60
2018-07-07T15:50:25.326Z,30.80
2018-07-07T15:52:54.132Z,30.60
2018-07-07T15:55:22.678Z,30.80
2018-07-07T15:57:51.424Z,30.80
2018-07-07T16:00:19.935Z,30.50
2018-07-07T16:02:48.500Z,30.70
2018-07-07T16:05:17.017Z,30.80
2018-07-07T16:07:45.505Z,30.50
2018-07-07T16:10:14.253Z,30.90
2018-07-07T16:12:42.778Z,30.50
2018-07-07T16:15:11.462Z,30.50
2018-07-07T16:17:40.533Z,30.60
2018-07-07T16:20:09.502Z,30.70
2018-07-07T16:22:38.272Z,31.00
2018-07-07T16:25:06.965Z,30.80
2018-07-07T16:27:35.556Z,30.70
2018-07-07T16:30:04.562Z,30.60
2018-07-07T16:32:33.130Z,30.90
2018-07-07T16:35:01.613Z,30.90
2018-07-07T16:37:31.375Z,30.80
2018-07-07T16:40:00.843Z,30.70
2018-07-07T16:42:32.019Z,30.80
2018-07-07T16:45:02.174Z,30.90
2018-07-07T16:47:31.334Z,30.90
2018-07-07T16:50:00.473Z,31.40
2018-07-07T16:52:30.365Z,31.50
2018-07-07T16:55:00.482Z,31.60
2018-07-07T16:57:29.333Z,31.90
2018-07-07T17:02:26.117Z,32.60
2018-07-07T17:04:54.792Z,32.80
2018-07-07T17:07:23.441Z,33.00
2018-07-07T17:09:52.057Z,32.90
2018-07-07T17:12:20.650Z,33.10
2018-07-07T17:14:49.125Z,33.40
2018-07-07T17:17:17.817Z,33.40
2018-07-07T17:19:46.441Z,33.00
2018-07-07T17:22:15.075Z,32.80
2018-07-07T17:24:43.682Z,32.90
2018-07-07T17:27:12.428Z,33.10
2018-07-07T17:29:41.090Z,33.10
2018-07-07T17:34:38.004Z,33.60
2018-07-07T17:37:06.886Z,33.60
2018-07-07T17:39:35.826Z,33.70
2018-07-07T17:42:04.541Z,33.50
2018-07-07T17:44:33.200Z,33.40
2018-07-07T17:47:01.986Z,33.50
2018-07-07T17:49:30.581Z,33.80
2018-07-07T17:51:59.739Z,33.60
2018-07-07T17:54:30.073Z,33.60
2018-07-07T17:56:59.391Z,33.60
2018-07-07T17:59:28.329Z,33.60
2018-07-07T18:01:56.982Z,33.80
2018-07-07T18:04:25.721Z,33.40
2018-07-07T18:06:54.335Z,33.30
2018-07-07T18:09:23.168Z,33.50
2018-07-07T18:11:52.291Z,33.30
2018-07-07T18:14:20.739Z,33.70
2018-07-07T18:16:49.413Z,34.10
2018-07-07T18:19:18.074Z,34.00
2018-07-07T18:21:46.841Z,34.30
2018-07-07T18:24:15.406Z,34.30
2018-07-07T18:26:44.018Z,34.10
2018-07-07T18:29:12.968Z,34.30
2018-07-07T18:31:41.463Z,34.10
2018-07-07T18:34:10.178Z,34.20
2018-07-07T18:36:38.740Z,34.20
2018-07-07T18:39:07.255Z,34.40
2018-07-07T18:41:35.898Z,34.70
2018-07-07T18:44:04.676Z,34.80
2018-07-07T18:46:33.361Z,35.00
2018-07-07T18:49:01.981Z,35.30
2018-07-07T18:51:31.145Z,35.30
2018-07-07T18:54:00.389Z,35.60
2018-07-07T18:56:29.140Z,35.60
2018-07-07T18:58:57.772Z,35.50
2018-07-07T19:01:27.069Z,35.60
2018-07-07T19:03:55.764Z,35.70
2018-07-07T19:06:24.416Z,35.90
2018-07-07T19:08:53.357Z,36.00
2018-07-07T19:11:21.889Z,36.00
2018-07-07T19:13:50.768Z,36.50
2018-07-07T19:16:20.338Z,36.50
2018-07-07T19:18:48.952Z,36.60
2018-07-07T19:21:23.042Z,37.10
2018-07-07T19:23:56.992Z,36.80
2018-07-07T19:26:30.926Z,37.50
2018-07-07T19:28:59.465Z,37.30
2018-07-07T19:31:28.137Z,37.40
2018-07-07T19:34:01.838Z,37.60
2018-07-07T19:36:35.521Z,37.90
2018-07-07T19:39:04.828Z,38.10
2018-07-07T19:41:33.823Z,38.60
2018-07-07T19:44:02.561Z,38.70
2018-07-07T19:46:31.200Z,39.10
2018-07-07T19:48:59.977Z,40.20
2018-07-07T19:51:28.593Z,39.90
2018-07-07T19:53:57.717Z,40.50
2018-07-07T19:56:26.149Z,40.90
2018-07-07T20:01:22.903Z,41.50
2018-07-07T20:03:51.424Z,41.70
2018-07-07T20:06:20.431Z,42.10
2018-07-07T20:08:49.067Z,42.40
2018-07-07T20:11:17.549Z,42.50
2018-07-07T20:13:46.542Z,43.70
2018-07-07T20:16:16.849Z,43.30
2018-07-07T20:21:40.065Z,43.60
2018-07-07T20:24:08.572Z,43.80
2018-07-07T20:26:37.412Z,44.10
2018-07-07T20:29:06.073Z,44.50
2018-07-07T20:31:38.807Z,44.60
2018-07-07T20:34:07.563Z,44.90
2018-07-07T20:36:36.098Z,45.30
2018-07-07T20:39:04.793Z,45.70
2018-07-07T20:41:33.485Z,47.10
2018-07-07T20:46:30.157Z,47.70
2018-07-07T20:48:59.704Z,47.80
2018-07-07T20:51:28.227Z,48.00
2018-07-07T20:53:56.911Z,48.70
2018-07-07T20:56:25.785Z,49.10
2018-07-07T20:58:54.285Z,49.80
2018-07-07T21:01:22.789Z,48.00
2018-07-07T21:03:52.034Z,48.00
2018-07-07T21:06:20.554Z,48.30
2018-07-07T21:08:49.117Z,48.50
2018-07-07T21:11:17.728Z,48.80
2018-07-07T21:13:46.246Z,49.10
2018-07-07T21:16:15.290Z,49.20
2018-07-07T21:18:43.896Z,49.70
2018-07-07T21:21:12.758Z,49.70
2018-07-07T21:23:41.755Z,49.90
2018-07-07T21:26:10.232Z,50.30
2018-07-07T21:28:38.762Z,50.50
2018-07-07T21:31:07.383Z,50.80
2018-07-07T21:33:37.146Z,51.00
2018-07-07T21:36:06.087Z,51.20
2018-07-07T21:38:34.734Z,51.70
2018-07-07T21:41:03.566Z,51.70
2018-07-07T21:43:32.489Z,52.00
2018-07-07T21:46:01.031Z,52.00
2018-07-07T21:48:29.748Z,52.30
2018-07-07T21:50:58.299Z,52.80
2018-07-07T21:53:26.927Z,52.90
2018-07-07T21:55:55.779Z,53.00
2018-07-07T21:58:26.307Z,53.20
2018-07-07T22:01:13.213Z,53.40
2018-07-07T22:03:47.388Z,53.90
2018-07-07T22:06:21.451Z,54.10
2018-07-07T22:08:50.620Z,54.40
2018-07-07T22:11:19.446Z,54.50
2018-07-07T22:13:47.884Z,54.70
2018-07-07T22:16:16.512Z,54.80
2018-07-07T22:18:45.267Z,55.00
2018-07-07T22:21:25.068Z,55.20
2018-07-07T22:23:53.647Z,55.30
2018-07-07T22:26:22.394Z,55.50
2018-07-07T22:28:51.196Z,56.00
2018-07-07T22:31:20.001Z,56.00
2018-07-07T22:33:48.666Z,56.10
2018-07-07T22:36:22.621Z,56.40
2018-07-07T22:38:56.584Z,56.50
2018-07-07T22:41:36.268Z,56.70
2018-07-07T22:44:05.010Z,56.70
2018-07-07T22:46:33.517Z,57.20
2018-07-07T22:49:02.033Z,57.30
2018-07-07T22:53:58.797Z,57.90
2018-07-07T22:56:27.278Z,58.10
2018-07-07T22:58:55.756Z,58.30
2018-07-07T23:01:24.314Z,58.40
2018-07-07T23:03:52.809Z,58.70
2018-07-07T23:06:21.296Z,58.90
2018-07-07T23:08:49.976Z,59.20
2018-07-07T23:11:18.629Z,59.30
2018-07-07T23:13:47.197Z,59.50
2018-07-07T23:16:15.774Z,59.50
2018-07-07T23:18:44.286Z,59.60
2018-07-07T23:21:12.849Z,60.00
2018-07-07T23:23:41.346Z,60.10
2018-07-07T23:26:10.246Z,60.00
2018-07-07T23:28:38.705Z,60.20
2018-07-07T23:33:35.382Z,61.00
2018-07-07T23:36:03.958Z,61.10
2018-07-07T23:38:32.471Z,61.10
2018-07-07T23:41:01.122Z,61.20
2018-07-07T23:43:29.608Z,61.40
2018-07-07T23:45:58.177Z,61.40
2018-07-07T23:48:26.897Z,62.30
2018-07-07T23:50:55.508Z,62.70
2018-07-07T23:53:26.278Z,61.50
2018-07-07T23:55:55.000Z,62.10
2018-07-07T23:58:23.486Z,62.40
